ΕΜΥ, Εθνική Μετεωρολογική Υπηρεσία - Δελτία Καιρού, Προγνώσεις

ΑΕΡΟΝΑΥΤΙΛΙΑ

GREEK AIRPORTS CODES

LGLR 280950Z 00000KT 9999 FEW080 32/16 Q1010 RMK SCT180=

EUROPEAN AIRPORTS CODES

LFPO 281000Z 01005KT 290V080 9999 SCT033 17/08 Q1023 NOSIG=